Time;durP1;ratioP1;P1;durP2;ratioP2;P2;SDS_P1;SDS_P2;PMS_P1;PMS_P2;Temp;Humidity;BMP_temperature;BMP_pressure;BME280_temperature;BME280_humidity;BME280_pressure;Samples;Min_cycle;Max_cycle;Signal;HPM_P1;HPM_P2
2022/12/18 20:02:14;;;;;;;15.55;13.98;;;24.00;67.20;;;;;;6270807;27;2131646;-64
2022/12/18 20:05:23;;;;;;;15.55;13.98;;;24.00;67.20;;;;;;6323328;27;83528;-65
2022/12/18 20:08:26;;;;;;;16.10;14.40;;;24.00;67.20;;;;;;6305867;27;82702;-64
2022/12/18 20:11:31;;;;;;;16.27;14.57;;;24.00;67.20;;;;;;6328130;27;83144;-64
2022/12/18 20:14:34;;;;;;;16.33;14.63;;;24.00;67.20;;;;;;6328144;27;82899;-64
2022/12/18 20:17:39;;;;;;;17.30;14.75;;;24.00;67.50;;;;;;6324459;27;82878;-64
2022/12/18 20:20:42;;;;;;;16.10;14.38;;;24.00;67.70;;;;;;6326694;27;82739;-66
2022/12/18 20:23:45;;;;;;;17.20;15.20;;;24.10;68.10;;;;;;6325042;27;82805;-66
2022/12/18 20:26:47;;;;;;;17.10;15.30;;;24.00;68.40;;;;;;6325991;27;82706;-67
2022/12/18 20:29:50;;;;;;;17.08;14.98;;;24.10;68.60;;;;;;6328455;27;82811;-65
2022/12/18 20:32:54;;;;;;;16.02;14.25;;;24.10;68.80;;;;;;6327327;27;82827;-66
2022/12/18 20:36:02;;;;;;;17.02;14.70;;;24.00;68.70;;;;;;6319056;27;84066;-66
2022/12/18 20:39:07;;;;;;;16.52;14.70;;;24.10;68.80;;;;;;6322878;27;84622;-66
2022/12/18 20:42:09;;;;;;;16.48;14.70;;;24.00;68.60;;;;;;6324527;27;82852;-66
2022/12/18 20:45:12;;;;;;;17.80;15.05;;;24.00;68.50;;;;;;6326360;27;82766;-66
2022/12/18 20:48:16;;;;;;;17.65;15.75;;;24.10;69.10;;;;;;6321942;27;82770;-66
2022/12/18 20:51:21;;;;;;;16.55;14.68;;;24.10;68.30;;;;;;6326278;27;82766;-67
2022/12/18 20:54:25;;;;;;;17.60;15.60;;;24.10;68.30;;;;;;6328044;27;82798;-66
2022/12/18 20:57:27;;;;;;;17.10;15.32;;;24.10;68.10;;;;;;6326727;27;82902;-66
2022/12/18 21:00:30;;;;;;;17.20;15.25;;;24.10;67.80;;;;;;6317583;27;83002;-66
2022/12/18 21:03:34;;;;;;;18.27;15.77;;;24.10;67.90;;;;;;6325818;27;84089;-66
2022/12/18 21:06:36;;;;;;;17.75;15.85;;;24.10;67.70;;;;;;6317694;27;83426;-67
2022/12/18 21:09:39;;;;;;;18.05;15.60;;;24.10;67.70;;;;;;6328518;27;85352;-66
2022/12/18 21:12:46;;;;;;;17.90;16.05;;;24.10;67.70;;;;;;6311995;27;83256;-66
2022/12/18 21:15:48;;;;;;;17.60;15.80;;;24.10;67.70;;;;;;6305460;27;83153;-67
2022/12/18 21:18:51;;;;;;;17.65;15.93;;;24.10;67.60;;;;;;6291924;27;84260;-66
2022/12/18 21:21:55;;;;;;;18.80;16.90;;;24.10;67.60;;;;;;6306428;27;84736;-67
2022/12/18 21:24:57;;;;;;;18.27;16.40;;;24.10;67.60;;;;;;6303455;27;82757;-66
2022/12/18 21:27:59;;;;;;;18.88;16.98;;;24.10;67.60;;;;;;6297551;27;83888;-67
2022/12/18 21:31:01;;;;;;;19.52;17.60;;;24.10;67.60;;;;;;6294585;27;82815;-67
2022/12/18 21:34:06;;;;;;;18.67;16.77;;;24.10;67.60;;;;;;6305976;27;82699;-66
2022/12/18 21:37:08;;;;;;;19.00;17.10;;;24.10;67.50;;;;;;6293855;27;82685;-67
2022/12/18 21:40:11;;;;;;;19.15;17.25;;;24.10;67.50;;;;;;6298407;27;82823;-67
2022/12/18 21:46:33;;;;;;;19.27;17.30;;;24.10;67.50;;;;;;6261291;27;82846;-67
2022/12/18 21:49:36;;;;;;;19.70;17.63;;;24.10;67.50;;;;;;6308408;27;82904;-66
2022/12/18 21:52:39;;;;;;;20.17;18.08;;;24.10;67.40;;;;;;6308998;27;82946;-66
2022/12/18 21:55:41;;;;;;;19.77;17.77;;;24.10;67.40;;;;;;6305908;27;83619;-66
2022/12/18 21:58:42;;;;;;;18.05;16.25;;;24.10;67.50;;;;;;6289445;27;82792;-67
2022/12/18 22:01:45;;;;;;;18.33;16.52;;;24.10;66.70;;;;;;6300459;27;83826;-66
2022/12/18 22:04:48;;;;;;;18.77;16.88;;;24.00;65.50;;;;;;6298227;27;82665;-67
2022/12/18 22:07:50;;;;;;;18.05;16.25;;;24.00;66.20;;;;;;6302649;27;82916;-66
2022/12/18 22:10:52;;;;;;;19.13;17.23;;;24.00;66.60;;;;;;6299241;27;83369;-66
2022/12/18 22:13:54;;;;;;;19.15;17.30;;;24.00;66.80;;;;;;6298749;27;82802;-66
2022/12/18 22:16:56;;;;;;;20.60;18.50;;;24.00;66.90;;;;;;6296680;27;82753;-66
2022/12/18 22:20:00;;;;;;;19.63;17.63;;;24.00;67.00;;;;;;6309157;27;82794;-67
2022/12/18 22:23:02;;;;;;;20.17;18.17;;;24.00;67.10;;;;;;6300759;27;82758;-66
2022/12/18 22:26:04;;;;;;;20.30;18.30;;;24.00;67.10;;;;;;6300292;27;83666;-66
2022/12/18 22:32:26;;;;;;;21.52;18.52;;;24.00;67.10;;;;;;6299659;27;82888;-66
2022/12/18 22:35:29;;;;;;;21.75;19.60;;;24.00;67.10;;;;;;6297518;27;83667;-66
2022/12/18 22:38:31;;;;;;;20.92;18.83;;;24.00;67.10;;;;;;6297144;27;82734;-66
2022/12/18 22:41:34;;;;;;;21.38;19.27;;;24.00;67.10;;;;;;6307961;27;82980;-66
2022/12/18 22:44:36;;;;;;;21.35;19.35;;;24.00;67.10;;;;;;6307839;27;84155;-67
2022/12/18 22:47:38;;;;;;;21.70;19.50;;;24.00;67.10;;;;;;6299607;27;84089;-66
2022/12/18 22:50:41;;;;;;;21.80;19.60;;;24.00;67.10;;;;;;6304068;27;82783;-67
2022/12/18 22:53:44;;;;;;;20.80;18.70;;;24.00;67.10;;;;;;6302299;27;82767;-66
2022/12/18 22:56:46;;;;;;;19.80;17.80;;;24.00;67.00;;;;;;6294842;27;82732;-66
2022/12/18 22:59:48;;;;;;;21.65;19.48;;;24.00;66.20;;;;;;6308280;27;82683;-66
2022/12/18 23:02:50;;;;;;;21.52;19.38;;;23.90;66.20;;;;;;6306858;27;82728;-66
2022/12/18 23:06:01;;;;;;;21.23;19.13;;;23.90;66.60;;;;;;6298800;27;84700;-66
2022/12/18 23:09:03;;;;;;;21.38;19.27;;;24.00;66.80;;;;;;6305163;27;82738;-66
2022/12/18 23:12:06;;;;;;;22.20;20.00;;;23.90;66.80;;;;;;6303946;27;83618;-67
2022/12/18 23:15:08;;;;;;;22.85;20.55;;;23.90;66.90;;;;;;6305198;27;84531;-66
2022/12/18 23:18:10;;;;;;;22.88;20.48;;;23.90;67.00;;;;;;6303192;27;82824;-67
2022/12/18 23:21:15;;;;;;;21.98;19.83;;;23.90;67.00;;;;;;6305371;27;82840;-66
2022/12/18 23:24:17;;;;;;;23.00;20.70;;;23.90;67.00;;;;;;6299680;27;82808;-66
2022/12/18 23:27:19;;;;;;;22.65;20.25;;;23.90;67.00;;;;;;6292789;27;84394;-66
2022/12/18 23:30:22;;;;;;;23.55;21.05;;;23.90;67.00;;;;;;6307008;27;82758;-66
2022/12/18 23:33:24;;;;;;;21.92;19.80;;;23.90;67.00;;;;;;6292000;27;83866;-66
2022/12/18 23:36:28;;;;;;;23.05;20.75;;;23.90;67.00;;;;;;6302996;27;84512;-66
2022/12/18 23:39:30;;;;;;;21.80;19.63;;;23.90;67.00;;;;;;6297866;27;84103;-66
2022/12/18 23:42:32;;;;;;;22.75;20.55;;;23.90;67.00;;;;;;6294724;27;83966;-66
2022/12/18 23:45:37;;;;;;;23.33;21.00;;;23.90;67.00;;;;;;6306370;27;83981;-66
2022/12/18 23:48:40;;;;;;;23.17;20.83;;;23.90;67.00;;;;;;6305525;27;82821;-66
2022/12/18 23:51:43;;;;;;;23.20;20.80;;;23.90;66.90;;;;;;6308131;27;83021;-67
2022/12/18 23:54:46;;;;;;;22.02;19.83;;;23.90;66.90;;;;;;6301029;27;82961;-66
2022/12/18 23:57:48;;;;;;;22.50;20.20;;;23.90;66.90;;;;;;6302944;27;82742;-66
